Joyce Maxine — WDC9281 — position and weather

sailwx.info

Track history (hours):
 
Tides and Currents Weather Stations Pressure Air Temp Water Temp Dewpoint Dewpoint Depression Visibility Wind Speed Wind Dir Waves Ship Positions

Joyce Maxine

Owner: LeBeouf Bros. Towing, L.L.C., Houma, LA. More information available from US FCC via Universal Licensing System and Coast Guard Vessel Documentation Center.

Last reported at 2017-Sep-23 22:59 UTC. Time now 2017-Sep-24 03:16 UTC.
Position N 29°45' W 095°06'.

Length 22 m; draft 3 m.

Type: Towing. MMSI: 367100060.

Date/timePositionNaut miles runAvg speedWind from/ knotsBaromVisibWave heightAir tempDewpointWater temp
2017-Sep-23 22:59N 29°45' W 095°06'2 4.4
2017-Sep-23 22:30N 29°45' W 095°04'3 6.0
2017-Sep-23 22:00N 29°43' W 095°01'1 2.5
2017-Sep-23 21:26N 29°42' W 095°03'0 0.0
2017-Sep-23 19:44N 29°42' W 095°03'9 0.2
2017-Sep-21 19:39N 29°44' W 095°14'1 3.9
2017-Sep-21 19:17N 29°44' W 095°12'2 4.4
2017-Sep-21 18:52N 29°45' W 095°10'2 5.0
2017-Sep-21 18:29N 29°44' W 095°08'3 5.3
2017-Sep-21 17:56N 29°46' W 095°05'2 4.9
2017-Sep-21 17:30N 29°44' W 095°03'2 4.8
2017-Sep-21 17:00N 29°43' W 095°01'1 2.4
2017-Sep-21 16:29N 29°42' W 095°03'0 0.4
2017-Sep-21 15:50N 29°42' W 095°03'0 0.0
2017-Sep-21 15:25N 29°42' W 095°03'0 0.0
2017-Sep-21 14:59N 29°42' W 095°03'0 0.0
2017-Sep-21 14:23N 29°42' W 095°03'0 0.0
2017-Sep-21 14:00N 29°42' W 095°03'0 0.0
2017-Sep-21 13:27N 29°42' W 095°03'0 0.0
2017-Sep-21 12:58N 29°42' W 095°03'0 0.0
2017-Sep-21 12:20N 29°42' W 095°03'0 0.0
2017-Sep-21 11:51N 29°42' W 095°03'0 0.0
2017-Sep-21 11:28N 29°42' W 095°03'0 0.0
2017-Sep-21 10:36N 29°42' W 095°03'0 0.0
2017-Sep-21 10:12N 29°42' W 095°03'0 0.0
2017-Sep-21 09:59N 29°42' W 095°03'0 0.0
2017-Sep-21 09:25N 29°42' W 095°03'0 0.0
2017-Sep-21 08:10N 29°42' W 095°03'0 0.0
2017-Sep-21 08:00N 29°42' W 095°03'0 0.0
2017-Sep-21 06:10N 29°42' W 095°03'0 0.0
2017-Sep-21 04:32N 29°42' W 095°03'0 0.0
2017-Sep-21 04:30N 29°42' W 095°03'0 0.0
2017-Sep-21 03:59N 29°42' W 095°03'0 0.0
2017-Sep-21 02:44N 29°42' W 095°03'0 0.0
2017-Sep-21 01:34N 29°42' W 095°03'0 0.0
2017-Sep-21 01:27N 29°42' W 095°03'0 0.0
2017-Sep-20 23:33N 29°42' W 095°03'0 0.0
2017-Sep-20 22:12N 29°42' W 095°03'0 0.0
2017-Sep-20 21:45N 29°42' W 095°03'0 0.0
2017-Sep-20 21:29N 29°42' W 095°03'0 0.0
2017-Sep-20 20:08N 29°42' W 095°03'0 0.1
2017-Sep-20 20:00N 29°42' W 095°03'0 0.1
2017-Sep-20 19:29N 29°42' W 095°03'0 0.0
2017-Sep-20 17:51N 29°42' W 095°03'0 0.0
2017-Sep-20 17:28N 29°42' W 095°03'0 0.0
2017-Sep-20 16:48N 29°42' W 095°03'0 0.0
2017-Sep-20 16:25N 29°42' W 095°03'0 0.0
2017-Sep-20 15:58N 29°42' W 095°03'0 0.0
2017-Sep-20 13:49N 29°42' W 095°03'0 0.0
2017-Sep-20 13:30N 29°42' W 095°03'0 0.0
2017-Sep-20 12:22N 29°42' W 095°03'0 0.0
2017-Sep-20 11:28N 29°42' W 095°03'0 0.0
2017-Sep-20 10:46N 29°42' W 095°03'0 0.0
2017-Sep-20 10:15N 29°42' W 095°03'0 0.0
2017-Sep-20 09:57N 29°42' W 095°03'0 0.0
2017-Sep-20 09:27N 29°42' W 095°03'0 0.0
2017-Sep-20 08:53N 29°42' W 095°03'0 0.0
2017-Sep-20 08:29N 29°42' W 095°03'0 0.0
2017-Sep-20 06:38N 29°42' W 095°03'0 0.0
2017-Sep-20 06:16N 29°42' W 095°03'0 0.0
2017-Sep-20 05:56N 29°42' W 095°03'0 0.0
2017-Sep-20 05:29N 29°42' W 095°03'0 0.0
2017-Sep-20 05:00N 29°42' W 095°03'0 0.0
2017-Sep-20 04:30N 29°42' W 095°03'0 0.0
2017-Sep-20 04:00N 29°42' W 095°03'0 0.0
2017-Sep-20 03:30N 29°42' W 095°03'0 0.0
2017-Sep-20 03:00N 29°42' W 095°03'0 0.0
2017-Sep-20 02:30N 29°42' W 095°03'0 0.0
2017-Sep-20 02:00N 29°42' W 095°03'0 0.0
2017-Sep-20 01:28N 29°42' W 095°03'0 0.0
2017-Sep-20 00:56N 29°42' W 095°03'0 0.0
2017-Sep-20 00:27N 29°43' W 095°03'0 0.0
2017-Sep-20 00:00N 29°42' W 095°03'0 0.0
2017-Sep-19 23:29N 29°43' W 095°03'0 0.0
2017-Sep-19 22:51N 29°43' W 095°03'0 0.0
2017-Sep-19 22:30N 29°43' W 095°03'0 0.0
2017-Sep-19 22:00N 29°43' W 095°03'0 0.0
2017-Sep-19 21:25N 29°43' W 095°03'0 0.0
2017-Sep-19 21:00N 29°43' W 095°03'0 0.0
2017-Sep-19 20:30N 29°43' W 095°03'0 0.0
2017-Sep-19 19:59N 29°43' W 095°03'0 0.0
2017-Sep-19 19:30N 29°43' W 095°03'0 0.0
2017-Sep-19 18:58N 29°43' W 095°03'0 0.0
2017-Sep-19 18:30N 29°43' W 095°03'0 0.0
2017-Sep-19 18:00N 29°43' W 095°03'0 0.0
2017-Sep-19 17:29N 29°43' W 095°03'0 0.0
2017-Sep-19 17:00N 29°43' W 095°03'0 0.0
2017-Sep-19 16:29N 29°43' W 095°03'0 0.0
2017-Sep-19 16:00N 29°43' W 095°03'0 0.0
2017-Sep-19 15:29N 29°43' W 095°03'0 0.0
2017-Sep-19 15:00N 29°43' W 095°03'0 0.0
2017-Sep-19 14:29N 29°43' W 095°03'0 0.0
2017-Sep-19 13:58N 29°43' W 095°03'0 0.0
2017-Sep-19 13:29N 29°43' W 095°03'0 0.0
2017-Sep-19 12:47N 29°43' W 095°03'0 0.0
2017-Sep-19 12:22N 29°43' W 095°03'0 0.2
2017-Sep-19 12:00N 29°43' W 095°03'1 1.3
2017-Sep-19 11:21N 29°42' W 095°02'1 3.3
2017-Sep-19 11:00N 29°42' W 095°01'3 5.4
2017-Sep-19 10:30N 29°40' W 094°59'4 7.2
2017-Sep-19 10:00N 29°37' W 094°57'3 6.7
2017-Sep-19 09:30N 29°34' W 094°55'3 6.8
2017-Sep-19 09:00N 29°31' W 094°53'  
2017-Sep-17 03:26N 29°50' W 093°58'0 0.0
2017-Sep-17 02:59N 29°50' W 093°58'0 0.0
2017-Sep-17 02:30N 29°50' W 093°58'  
Track history (hours):
 
Tides and Currents Weather Stations Pressure Air Temp Water Temp Dewpoint Dewpoint Depression Visibility Wind Speed Wind Dir Waves Ship Positions

Joyce Maxine

Owner: LeBeouf Bros. Towing, L.L.C., Houma, LA. More information available from US FCC via Universal Licensing System and Coast Guard Vessel Documentation Center.

Last reported at 2017-Sep-23 22:59 UTC. Time now 2017-Sep-24 03:16 UTC.
Position N 29°45' W 095°06'.

Length 22 m; draft 3 m.

Type: Towing. MMSI: 367100060.

Date/timePositionNaut miles runAvg speedWind from/ knotsBaromVisibWave heightAir tempDewpointWater temp
2017-Sep-23 22:59N 29°45' W 095°06'2 4.4
2017-Sep-23 22:30N 29°45' W 095°04'3 6.0
2017-Sep-23 22:00N 29°43' W 095°01'1 2.5
2017-Sep-23 21:26N 29°42' W 095°03'0 0.0
2017-Sep-23 19:44N 29°42' W 095°03'9 0.2
2017-Sep-21 19:39N 29°44' W 095°14'1 3.9
2017-Sep-21 19:17N 29°44' W 095°12'2 4.4
2017-Sep-21 18:52N 29°45' W 095°10'2 5.0
2017-Sep-21 18:29N 29°44' W 095°08'3 5.3
2017-Sep-21 17:56N 29°46' W 095°05'2 4.9
2017-Sep-21 17:30N 29°44' W 095°03'2 4.8
2017-Sep-21 17:00N 29°43' W 095°01'1 2.4
2017-Sep-21 16:29N 29°42' W 095°03'0 0.4
2017-Sep-21 15:50N 29°42' W 095°03'0 0.0
2017-Sep-21 15:25N 29°42' W 095°03'0 0.0
2017-Sep-21 14:59N 29°42' W 095°03'0 0.0
2017-Sep-21 14:23N 29°42' W 095°03'0 0.0
2017-Sep-21 14:00N 29°42' W 095°03'0 0.0
2017-Sep-21 13:27N 29°42' W 095°03'0 0.0
2017-Sep-21 12:58N 29°42' W 095°03'0 0.0
2017-Sep-21 12:20N 29°42' W 095°03'0 0.0
2017-Sep-21 11:51N 29°42' W 095°03'0 0.0
2017-Sep-21 11:28N 29°42' W 095°03'0 0.0
2017-Sep-21 10:36N 29°42' W 095°03'0 0.0
2017-Sep-21 10:12N 29°42' W 095°03'0 0.0
2017-Sep-21 09:59N 29°42' W 095°03'0 0.0
2017-Sep-21 09:25N 29°42' W 095°03'0 0.0
2017-Sep-21 08:10N 29°42' W 095°03'0 0.0
2017-Sep-21 08:00N 29°42' W 095°03'0 0.0
2017-Sep-21 06:10N 29°42' W 095°03'0 0.0
2017-Sep-21 04:32N 29°42' W 095°03'0 0.0
2017-Sep-21 04:30N 29°42' W 095°03'0 0.0
2017-Sep-21 03:59N 29°42' W 095°03'0 0.0
2017-Sep-21 02:44N 29°42' W 095°03'0 0.0
2017-Sep-21 01:34N 29°42' W 095°03'0 0.0
2017-Sep-21 01:27N 29°42' W 095°03'0 0.0
2017-Sep-20 23:33N 29°42' W 095°03'0 0.0
2017-Sep-20 22:12N 29°42' W 095°03'0 0.0
2017-Sep-20 21:45N 29°42' W 095°03'0 0.0
2017-Sep-20 21:29N 29°42' W 095°03'0 0.0
2017-Sep-20 20:08N 29°42' W 095°03'0 0.1
2017-Sep-20 20:00N 29°42' W 095°03'0 0.1
2017-Sep-20 19:29N 29°42' W 095°03'0 0.0
2017-Sep-20 17:51N 29°42' W 095°03'0 0.0
2017-Sep-20 17:28N 29°42' W 095°03'0 0.0
2017-Sep-20 16:48N 29°42' W 095°03'0 0.0
2017-Sep-20 16:25N 29°42' W 095°03'0 0.0
2017-Sep-20 15:58N 29°42' W 095°03'0 0.0
2017-Sep-20 13:49N 29°42' W 095°03'0 0.0
2017-Sep-20 13:30N 29°42' W 095°03'0 0.0
2017-Sep-20 12:22N 29°42' W 095°03'0 0.0
2017-Sep-20 11:28N 29°42' W 095°03'0 0.0
2017-Sep-20 10:46N 29°42' W 095°03'0 0.0
2017-Sep-20 10:15N 29°42' W 095°03'0 0.0
2017-Sep-20 09:57N 29°42' W 095°03'0 0.0
2017-Sep-20 09:27N 29°42' W 095°03'0 0.0
2017-Sep-20 08:53N 29°42' W 095°03'0 0.0
2017-Sep-20 08:29N 29°42' W 095°03'0 0.0
2017-Sep-20 06:38N 29°42' W 095°03'0 0.0
2017-Sep-20 06:16N 29°42' W 095°03'0 0.0
2017-Sep-20 05:56N 29°42' W 095°03'0 0.0
2017-Sep-20 05:29N 29°42' W 095°03'0 0.0
2017-Sep-20 05:00N 29°42' W 095°03'0 0.0
2017-Sep-20 04:30N 29°42' W 095°03'0 0.0
2017-Sep-20 04:00N 29°42' W 095°03'0 0.0
2017-Sep-20 03:30N 29°42' W 095°03'0 0.0
2017-Sep-20 03:00N 29°42' W 095°03'0 0.0
2017-Sep-20 02:30N 29°42' W 095°03'0 0.0
2017-Sep-20 02:00N 29°42' W 095°03'0 0.0
2017-Sep-20 01:28N 29°42' W 095°03'0 0.0
2017-Sep-20 00:56N 29°42' W 095°03'0 0.0
2017-Sep-20 00:27N 29°43' W 095°03'0 0.0
2017-Sep-20 00:00N 29°42' W 095°03'0 0.0
2017-Sep-19 23:29N 29°43' W 095°03'0 0.0
2017-Sep-19 22:51N 29°43' W 095°03'0 0.0
2017-Sep-19 22:30N 29°43' W 095°03'0 0.0
2017-Sep-19 22:00N 29°43' W 095°03'0 0.0
2017-Sep-19 21:25N 29°43' W 095°03'0 0.0
2017-Sep-19 21:00N 29°43' W 095°03'0 0.0
2017-Sep-19 20:30N 29°43' W 095°03'0 0.0
2017-Sep-19 19:59N 29°43' W 095°03'0 0.0
2017-Sep-19 19:30N 29°43' W 095°03'0 0.0
2017-Sep-19 18:58N 29°43' W 095°03'0 0.0
2017-Sep-19 18:30N 29°43' W 095°03'0 0.0
2017-Sep-19 18:00N 29°43' W 095°03'0 0.0
2017-Sep-19 17:29N 29°43' W 095°03'0 0.0
2017-Sep-19 17:00N 29°43' W 095°03'0 0.0
2017-Sep-19 16:29N 29°43' W 095°03'0 0.0
2017-Sep-19 16:00N 29°43' W 095°03'0 0.0
2017-Sep-19 15:29N 29°43' W 095°03'0 0.0
2017-Sep-19 15:00N 29°43' W 095°03'0 0.0
2017-Sep-19 14:29N 29°43' W 095°03'0 0.0
2017-Sep-19 13:58N 29°43' W 095°03'0 0.0
2017-Sep-19 13:29N 29°43' W 095°03'0 0.0
2017-Sep-19 12:47N 29°43' W 095°03'0 0.0
2017-Sep-19 12:22N 29°43' W 095°03'0 0.2
2017-Sep-19 12:00N 29°43' W 095°03'1 1.3
2017-Sep-19 11:21N 29°42' W 095°02'1 3.3
2017-Sep-19 11:00N 29°42' W 095°01'3 5.4
2017-Sep-19 10:30N 29°40' W 094°59'4 7.2
2017-Sep-19 10:00N 29°37' W 094°57'3 6.7
2017-Sep-19 09:30N 29°34' W 094°55'3 6.8
2017-Sep-19 09:00N 29°31' W 094°53'  
2017-Sep-17 03:26N 29°50' W 093°58'0 0.0
2017-Sep-17 02:59N 29°50' W 093°58'0 0.0
2017-Sep-17 02:30N 29°50' W 093°58'  

Dump ship's entire track history